createdAt,value
2023-04-20T00:04:11.946Z,59.1
2023-04-20T00:08:48.452Z,59.3
2023-04-20T00:13:54.822Z,59.4
2023-04-20T00:24:17.646Z,59.7
2023-04-20T00:29:24.088Z,59.7
2023-04-20T00:39:36.892Z,60.0
2023-04-20T00:44:33.214Z,60.1
2023-04-20T00:49:39.601Z,60.2
2023-04-20T00:54:55.037Z,60.3
2023-04-20T00:59:52.484Z,60.3
2023-04-20T01:05:09.096Z,60.5
2023-04-20T01:10:05.592Z,60.5
2023-04-20T01:15:49.642Z,60.6
2023-04-20T01:25:58.372Z,60.8
2023-04-20T01:30:48.708Z,60.9
2023-04-20T01:35:55.685Z,60.9
2023-04-20T01:40:58.081Z,61.6
2023-04-20T01:46:12.133Z,61.2
2023-04-20T01:51:14.447Z,61.4
2023-04-20T01:56:24.841Z,61.9
2023-04-20T02:01:51.280Z,62.5
2023-04-20T02:06:33.708Z,62.9
2023-04-20T02:21:42.830Z,63.2
2023-04-20T02:26:49.212Z,63.5
2023-04-20T02:31:55.704Z,64.1
2023-04-20T02:37:12.167Z,64.0
2023-04-20T02:42:38.584Z,64.2
2023-04-20T02:47:24.983Z,64.7
2023-04-20T02:52:31.413Z,64.5
2023-04-20T02:57:27.763Z,64.6
2023-04-20T03:02:44.287Z,64.6
2023-04-20T03:08:14.854Z,66.0
2023-04-20T03:12:57.225Z,65.6
2023-04-20T03:18:03.692Z,65.9
2023-04-20T03:23:10.132Z,66.1
2023-04-20T03:33:22.912Z,66.4
2023-04-20T03:38:29.293Z,66.0
2023-04-20T03:43:59.738Z,66.7
2023-04-20T03:49:10.104Z,66.6
2023-04-20T03:53:48.444Z,66.6
2023-04-20T03:59:09.068Z,67.1
2023-04-20T04:08:58.149Z,67.3
2023-04-20T04:14:14.646Z,67.2
2023-04-20T04:19:21.045Z,67.2
2023-04-20T04:24:27.389Z,67.1
2023-04-20T04:29:23.784Z,67.8
2023-04-20T04:34:30.190Z,67.5
2023-04-20T04:40:06.739Z,68.0
2023-04-20T04:44:53.104Z,67.7
2023-04-20T04:49:59.473Z,68.2
2023-04-20T04:55:05.902Z,68.1
2023-04-20T05:00:12.263Z,68.1
2023-04-20T05:05:19.365Z,68.4
2023-04-20T05:10:49.809Z,68.5
2023-04-20T05:15:32.293Z,69.1
2023-04-20T05:20:38.558Z,69.6
2023-04-20T05:25:45.031Z,69.0
2023-04-20T05:31:15.655Z,69.2
2023-04-20T05:36:22.100Z,69.5
2023-04-20T05:41:04.434Z,69.6
2023-04-20T05:46:10.935Z,70.1
2023-04-20T05:51:21.252Z,69.7
2023-04-20T05:56:23.586Z,69.9
2023-04-20T06:01:50.028Z,70.4
2023-04-20T06:06:36.381Z,71.1
2023-04-20T06:11:42.736Z,70.3
2023-04-20T06:16:49.231Z,70.7
2023-04-20T06:21:55.667Z,71.3
2023-04-20T06:27:02.007Z,71.0
2023-04-20T06:32:08.413Z,71.4
2023-04-20T06:37:14.789Z,72.1
2023-04-20T06:42:21.139Z,72.1
2023-04-20T06:47:27.518Z,72.4
2023-04-20T06:52:33.923Z,71.5
2023-04-20T06:57:40.432Z,72.0
2023-04-20T07:02:47.093Z,72.0
2023-04-20T07:12:59.706Z,72.2
2023-04-20T07:18:06.231Z,71.4
2023-04-20T07:23:02.667Z,71.8
2023-04-20T07:28:08.969Z,71.8
2023-04-20T07:33:49.424Z,71.8
2023-04-20T07:38:51.806Z,71.9
2023-04-20T07:43:38.115Z,72.4
2023-04-20T07:49:08.640Z,72.4
2023-04-20T07:54:15.053Z,73.4
2023-04-20T07:58:57.357Z,73.0
2023-04-20T08:04:27.985Z,73.4
2023-04-20T08:09:12.598Z,79.7
2023-04-20T08:14:30.566Z,80.8
2023-04-20T08:19:23.138Z,81.3
2023-04-20T08:24:43.273Z,81.8
2023-04-20T08:29:35.780Z,82.2
2023-04-20T08:34:42.175Z,81.2
2023-04-20T08:44:54.979Z,80.6
2023-04-20T08:50:01.322Z,79.5
2023-04-20T08:55:27.845Z,78.7
2023-04-20T09:10:26.949Z,75.5
2023-04-20T09:15:33.345Z,75.6
2023-04-20T09:20:59.767Z,76.6
2023-04-20T09:25:46.066Z,77.6
2023-04-20T09:31:16.510Z,75.8
2023-04-20T09:35:48.828Z,74.6
2023-04-20T09:41:05.353Z,73.7
2023-04-20T09:46:11.609Z,73.0
2023-04-20T09:51:17.978Z,72.9
2023-04-20T09:56:48.463Z,72.8
2023-04-20T10:01:55.979Z,72.9
2023-04-20T10:16:40.240Z,73.0
2023-04-20T10:22:21.480Z,74.2
2023-04-20T10:27:27.864Z,74.1
2023-04-20T10:32:10.217Z,73.1
2023-04-20T10:37:36.609Z,73.0
2023-04-20T10:42:24.060Z,73.3
2023-04-20T10:52:36.827Z,72.1
2023-04-20T11:03:17.448Z,70.5
2023-04-20T11:07:59.544Z,71.0
2023-04-20T11:13:28.277Z,70.0
2023-04-20T11:18:14.741Z,70.0
2023-04-20T11:23:21.158Z,69.9
2023-04-20T11:28:27.564Z,70.1
2023-04-20T11:33:24.078Z,70.3
2023-04-20T11:38:40.382Z,70.4
2023-04-20T11:44:06.749Z,70.7
2023-04-20T11:48:43.181Z,70.8
2023-04-20T11:54:01.187Z,70.9
2023-04-20T11:59:27.744Z,70.4
2023-04-20T12:04:14.418Z,70.5
2023-04-20T12:14:26.860Z,70.6
2023-04-20T12:19:33.286Z,70.6
2023-04-20T12:24:39.684Z,70.7
2023-04-20T12:29:46.220Z,70.8
2023-04-20T12:34:54.182Z,70.2
2023-04-20T12:45:06.899Z,71.0
2023-04-20T12:50:13.292Z,71.0
2023-04-20T12:55:39.740Z,71.4
2023-04-20T13:00:16.117Z,71.9
2023-04-20T13:05:23.554Z,72.3
2023-04-20T13:10:40.063Z,72.5
2023-04-20T13:15:46.504Z,73.0
2023-04-20T13:20:52.848Z,72.8
2023-04-20T13:30:55.668Z,72.7
2023-04-20T13:36:01.963Z,73.0
2023-04-20T13:41:18.361Z,72.0
2023-04-20T13:46:25.104Z,71.5
2023-04-20T13:51:31.249Z,71.5
2023-04-20T13:56:37.673Z,69.8
2023-04-20T14:12:00.808Z,70.2
2023-04-20T14:17:03.199Z,69.7
2023-04-20T14:22:13.555Z,70.5
2023-04-20T14:27:15.944Z,70.1
2023-04-20T14:32:22.393Z,69.1
2023-04-20T14:37:18.728Z,68.7
2023-04-20T14:42:55.150Z,68.9
2023-04-20T14:47:31.487Z,68.3
2023-04-20T14:52:47.878Z,67.8
2023-04-20T14:57:54.357Z,66.8
2023-04-20T15:03:01.036Z,67.2
2023-04-20T15:08:07.127Z,68.0
2023-04-20T15:13:13.531Z,68.2
2023-04-20T15:18:20.002Z,67.0
2023-04-20T15:23:26.322Z,67.1
2023-04-20T15:28:32.881Z,65.9
2023-04-20T15:38:45.649Z,66.4
2023-04-20T15:43:52.055Z,65.4
2023-04-20T15:49:54.568Z,65.2
2023-04-20T15:53:54.887Z,64.6
2023-04-20T15:59:11.290Z,65.3
2023-04-20T16:04:18.105Z,65.0
2023-04-20T16:09:38.114Z,65.6
2023-04-20T16:14:30.444Z,66.2
2023-04-20T16:19:40.822Z,65.8
2023-04-20T16:26:03.372Z,66.2
2023-04-20T16:29:49.599Z,65.4
2023-04-20T16:35:20.036Z,65.8
2023-04-20T16:40:26.552Z,65.4
2023-04-20T16:45:08.878Z,65.6
2023-04-20T16:50:35.277Z,65.4
2023-04-20T16:55:21.632Z,65.0
2023-04-20T17:00:28.093Z,65.0
2023-04-20T17:05:34.366Z,65.7
2023-04-20T17:10:40.900Z,65.7
2023-04-20T17:15:47.294Z,65.9
2023-04-20T17:20:53.671Z,65.8
2023-04-20T17:26:20.078Z,66.0
2023-04-20T17:31:30.541Z,66.5
2023-04-20T17:36:12.805Z,66.8
2023-04-20T17:41:19.312Z,67.2
2023-04-20T17:46:45.763Z,67.4
2023-04-20T17:51:22.053Z,67.9
2023-04-20T17:56:38.450Z,67.8
2023-04-20T18:02:41.113Z,68.1
2023-04-20T18:07:47.318Z,68.2
2023-04-20T18:17:05.550Z,69.0
2023-04-20T18:22:36.000Z,69.6
2023-04-20T18:27:08.335Z,70.1
2023-04-20T18:32:25.035Z,70.0
2023-04-20T18:37:31.494Z,70.2
2023-04-20T18:42:37.916Z,70.6
2023-04-20T18:47:44.356Z,71.9
2023-04-20T18:53:14.753Z,71.4
2023-04-20T18:57:57.112Z,71.6
2023-04-20T19:03:03.703Z,71.3
2023-04-20T19:08:10.018Z,71.3
2023-04-20T19:18:22.786Z,72.6
2023-04-20T19:28:35.663Z,72.2
2023-04-20T19:34:03.633Z,73.2
2023-04-20T19:43:56.677Z,72.7
2023-04-20T19:49:03.043Z,73.2
2023-04-20T20:04:22.302Z,73.8
2023-04-20T20:09:28.661Z,73.6
2023-04-20T20:14:37.184Z,74.5
2023-04-20T20:19:41.535Z,74.9
2023-04-20T20:24:47.916Z,74.9
2023-04-20T20:29:54.261Z,74.9
2023-04-20T20:35:00.702Z,76.6
2023-04-20T20:41:19.227Z,76.2
2023-04-20T20:45:13.438Z,76.4
2023-04-20T20:51:51.046Z,76.0
2023-04-20T20:55:25.269Z,76.8
2023-04-20T21:00:32.656Z,76.3
2023-04-20T21:06:03.088Z,75.9
2023-04-20T21:15:41.775Z,76.0
2023-04-20T21:20:58.172Z,76.9
2023-04-20T21:26:28.629Z,76.8
2023-04-20T21:31:00.891Z,77.5
2023-04-20T21:36:37.414Z,77.3
2023-04-20T21:42:07.907Z,77.4
2023-04-20T21:46:50.183Z,77.2
2023-04-20T21:51:36.624Z,76.8
2023-04-20T22:03:01.733Z,76.1
2023-04-20T22:06:45.835Z,76.0
2023-04-20T22:17:08.621Z,76.2
2023-04-20T22:22:49.168Z,76.6
2023-04-20T22:27:56.527Z,76.6
2023-04-20T22:34:06.128Z,76.9
2023-04-20T22:37:58.374Z,77.1
2023-04-20T22:43:15.756Z,77.2
2023-04-20T22:48:22.122Z,76.8
2023-04-20T22:53:48.570Z,77.3
2023-04-20T22:58:34.905Z,77.4
2023-04-20T23:03:41.445Z,77.6
2023-04-20T23:08:47.781Z,77.7
2023-04-20T23:14:21.825Z,77.6
2023-04-20T23:19:04.136Z,77.9
2023-04-20T23:29:36.990Z,78.2
2023-04-20T23:39:29.822Z,79.6
2023-04-20T23:44:36.228Z,80.6
2023-04-20T23:49:42.613Z,80.6
2023-04-20T23:54:48.960Z,81.6
2023-04-20T23:59:55.349Z,82.3
